Time;durP1;ratioP1;P1;durP2;ratioP2;P2;SDS_P1;SDS_P2;PMS_P1;PMS_P2;Temp;Humidity;BMP_temperature;BMP_pressure;BME280_temperature;BME280_humidity;BME280_pressure;Samples;Min_cycle;Max_cycle;Signal;HPM_P1;HPM_P2
2023/04/07 00:00:35;;;;;;;28.17;19.63;;;;;;;9.51;82.69;101365.94;5082640;28;20028;-62
2023/04/07 00:03:05;;;;;;;27.27;19.85;;;;;;;9.54;82.65;101362.72;5081929;28;20040;-64
2023/04/07 00:05:30;;;;;;;30.92;20.02;;;;;;;9.52;82.34;101360.19;5078276;28;20074;-63
2023/04/07 00:07:56;;;;;;;30.27;18.88;;;;;;;9.54;81.90;101363.56;5085597;28;20447;-63
2023/04/07 00:10:21;;;;;;;28.23;18.75;;;;;;;9.54;82.08;101365.47;5087741;28;20518;-63
2023/04/07 00:12:46;;;;;;;28.13;18.70;;;;;;;9.49;82.21;101362.56;5075846;28;20577;-63
2023/04/07 00:15:12;;;;;;;27.52;18.88;;;;;;;9.52;81.82;101357.41;5086151;28;20122;-63
2023/04/07 00:17:37;;;;;;;27.88;19.60;;;;;;;9.52;82.06;101362.97;5080942;28;20043;-63
2023/04/07 00:20:03;;;;;;;26.42;19.08;;;;;;;9.52;81.80;101362.97;5085939;28;20391;-63
2023/04/07 00:22:28;;;;;;;27.90;19.35;;;;;;;9.54;81.91;101365.47;5083958;28;20040;-63
2023/04/07 00:24:53;;;;;;;25.83;18.63;;;;;;;9.53;81.88;101359.09;5086084;28;20094;-62
2023/04/07 00:27:19;;;;;;;29.40;19.30;;;;;;;9.54;81.71;101366.31;5087114;28;20114;-63
2023/04/07 00:29:45;;;;;;;26.10;19.15;;;;;;;9.52;81.73;101371.28;5080744;28;20183;-62
2023/04/07 00:32:11;;;;;;;25.17;19.00;;;;;;;9.50;81.29;101370.63;5079763;28;20083;-63
2023/04/07 00:34:36;;;;;;;29.17;19.42;;;;;;;9.53;81.14;101369.34;5079177;28;20032;-63
2023/04/07 00:37:01;;;;;;;27.63;19.20;;;;;;;9.53;81.77;101367.41;5082083;28;20074;-63
2023/04/07 00:39:26;;;;;;;29.73;19.70;;;;;;;9.52;81.50;101368.50;5082121;28;20028;-63
2023/04/07 00:41:52;;;;;;;28.25;19.33;;;;;;;9.52;81.52;101367.66;5071490;28;20530;-63
2023/04/07 00:44:17;;;;;;;25.02;19.27;;;;;;;9.53;81.57;101369.34;5071698;28;20093;-63
2023/04/07 00:46:43;;;;;;;28.55;20.02;;;;;;;9.54;81.63;101357.16;5069054;28;20681;-63
2023/04/07 00:49:08;;;;;;;27.73;18.67;;;;;;;9.52;81.47;101362.97;5072213;28;20034;-63
2023/04/07 00:51:34;;;;;;;29.25;19.52;;;;;;;9.50;81.02;101358.72;5075076;28;20120;-63
2023/04/07 00:54:00;;;;;;;27.88;20.33;;;;;;;9.50;81.34;101358.72;5069648;28;20740;-63
2023/04/07 00:56:26;;;;;;;30.98;20.15;;;;;;;9.50;80.95;101369.81;5070131;28;20474;-63
2023/04/07 00:58:51;;;;;;;29.05;20.40;;;;;;;9.50;81.05;101358.72;5070457;28;20078;-63
2023/04/07 01:02:00;;;;;;;27.90;19.38;;;;;;;9.54;80.97;101363.56;5077882;28;20028;-63
2023/04/07 01:04:41;;;;;;;26.98;19.50;;;;;;;9.53;80.95;101364.63;5077642;28;20063;-63
2023/04/07 01:07:17;;;;;;;21.45;17.02;;;;;;;9.52;81.00;101368.50;5088798;28;20173;-63
2023/04/07 01:09:53;;;;;;;25.27;18.38;;;;;;;9.51;80.53;101366.81;5070609;28;20035;-63
2023/04/07 01:12:27;;;;;;;25.90;18.85;;;;;;;9.50;80.83;101367.88;5089190;28;20130;-63
2023/04/07 01:14:59;;;;;;;25.85;19.38;;;;;;;9.50;80.78;101365.09;5076661;28;20383;-63
2023/04/07 01:17:27;;;;;;;26.20;19.52;;;;;;;9.50;80.52;101365.09;5089266;28;20028;-62
2023/04/07 01:19:58;;;;;;;26.20;19.75;;;;;;;9.49;81.13;101376.44;5089694;28;20020;-62
2023/04/07 01:22:33;;;;;;;30.30;22.15;;;;;;;9.48;80.55;101370.03;5088035;28;20039;-63
2023/04/07 01:25:12;;;;;;;26.65;20.42;;;;;;;9.47;80.96;101368.38;5090171;28;20023;-63
2023/04/07 01:27:47;;;;;;;26.00;20.10;;;;;;;9.48;80.91;101372.81;5075707;28;20037;-63
2023/04/07 01:30:14;;;;;;;29.65;20.73;;;;;;;9.45;81.08;101375.19;5069794;28;20036;-63
2023/04/07 01:32:42;;;;;;;27.75;20.63;;;;;;;9.43;81.19;101372.69;5085934;28;20136;-63
2023/04/07 01:35:12;;;;;;;29.30;21.38;;;;;;;9.47;81.13;101382.22;5090067;28;20063;-63
2023/04/07 01:37:38;;;;;;;27.58;21.20;;;;;;;9.46;80.83;101379.66;5072600;28;20036;-63
2023/04/07 01:40:06;;;;;;;29.90;20.05;;;;;;;9.47;81.09;101379.44;5086651;28;20036;-63
2023/04/07 01:42:33;;;;;;;27.50;19.90;;;;;;;9.45;80.67;101378.81;5088154;28;20402;-63
2023/04/07 01:45:00;;;;;;;25.60;18.70;;;;;;;9.46;80.58;101380.50;5072425;28;20027;-63
2023/04/07 01:47:29;;;;;;;24.90;18.08;;;;;;;9.42;80.33;101384.81;5073799;28;20128;-63
2023/04/07 01:49:57;;;;;;;20.70;15.30;;;;;;;9.44;80.02;101377.13;5083016;28;20032;-63
2023/04/07 01:52:24;;;;;;;21.40;14.73;;;;;;;9.44;79.68;101388.22;5092087;28;20471;-63
2023/04/07 01:54:49;;;;;;;19.05;14.25;;;;;;;9.43;79.82;101388.44;5092686;28;20112;-63
2023/04/07 01:57:15;;;;;;;21.02;13.98;;;;;;;9.43;79.75;101397.63;5081093;28;20111;-63
2023/04/07 01:59:40;;;;;;;14.65;11.68;;;;;;;9.44;79.31;101392.91;5089163;28;20035;-63
2023/04/07 02:02:05;;;;;;;15.75;11.05;;;;;;;9.44;79.75;101402.06;5080483;28;20155;-63
2023/04/07 02:04:46;;;;;;;16.67;11.00;;;;;;;9.44;79.45;101399.31;5088923;28;20031;-63
2023/04/07 02:07:19;;;;;;;17.80;10.30;;;;;;;9.41;79.49;101412.78;5072775;28;20475;-63
2023/04/07 02:09:47;;;;;;;16.80;9.93;;;;;;;9.40;79.21;101409.16;5072208;28;20056;-63
2023/04/07 02:12:14;;;;;;;15.40;9.68;;;;;;;9.42;79.24;101401.44;5072015;28;20055;-63
2023/04/07 02:14:41;;;;;;;13.75;9.32;;;;;;;9.41;79.14;101404.47;5087893;28;20028;-63
2023/04/07 02:17:06;;;;;;;13.55;8.27;;;;;;;9.40;78.73;101397.22;5091826;28;20039;-63
2023/04/07 02:19:34;;;;;;;13.85;8.40;;;;;;;9.40;78.75;101400.84;5092119;28;20069;-63
2023/04/07 02:22:02;;;;;;;16.63;9.05;;;;;;;9.39;78.92;101398.28;5080034;28;20056;-63
2023/04/07 02:24:27;;;;;;;13.38;8.85;;;;;;;9.39;79.09;101399.13;5087956;28;20084;-63
2023/04/07 02:26:53;;;;;;;18.27;9.75;;;;;;;9.37;78.86;101398.53;5074564;28;20029;-63
2023/04/07 02:29:18;;;;;;;12.05;7.95;;;;;;;9.36;78.63;101402.38;5077772;28;20036;-63
2023/04/07 02:31:43;;;;;;;14.43;8.00;;;;;;;9.38;79.12;101396.59;5079125;28;20379;-63
2023/04/07 02:34:09;;;;;;;15.38;8.25;;;;;;;9.39;78.90;101395.50;5078300;28;20040;-63
2023/04/07 02:36:34;;;;;;;15.77;7.75;;;;;;;9.37;78.81;101392.16;5077094;28;20132;-63
2023/04/07 02:39:00;;;;;;;13.52;7.60;;;;;;;9.38;78.80;101388.28;5076483;28;20028;-63
2023/04/07 02:41:25;;;;;;;10.38;7.63;;;;;;;9.41;78.55;101388.69;5083789;28;20496;-63
2023/04/07 02:43:50;;;;;;;11.35;8.07;;;;;;;9.37;78.80;101389.38;5070598;28;20416;-63
2023/04/07 02:46:15;;;;;;;12.57;8.85;;;;;;;9.37;78.20;101390.22;5075164;28;20040;-63
2023/04/07 02:48:41;;;;;;;17.10;10.30;;;;;;;9.36;78.85;101393.22;5092238;28;20081;-63
2023/04/07 02:51:06;;;;;;;17.75;9.77;;;;;;;9.36;78.26;101401.53;5077807;28;20033;-63
2023/04/07 02:53:31;;;;;;;17.10;10.85;;;;;;;9.39;78.38;101396.34;5080716;28;20089;-63
2023/04/07 02:55:57;;;;;;;16.75;11.05;;;;;;;9.37;78.16;101395.75;5087262;28;20063;-63
2023/04/07 02:58:22;;;;;;;16.45;11.32;;;;;;;9.37;78.21;101389.38;5085875;28;20032;-63
2023/04/07 03:00:48;;;;;;;18.23;11.48;;;;;;;9.38;78.46;101391.06;5077568;28;20371;-63
2023/04/07 03:03:14;;;;;;;19.42;12.35;;;;;;;9.34;78.56;101391.53;5085883;28;20294;-63
2023/04/07 03:05:39;;;;;;;16.75;12.02;;;;;;;9.35;78.27;101400.66;5081353;28;20475;-63
2023/04/07 03:08:04;;;;;;;21.42;12.73;;;;;;;9.31;78.47;101400.31;5081242;28;20031;-63
2023/04/07 03:10:30;;;;;;;18.48;11.80;;;;;;;9.32;78.59;101401.16;5085010;28;20539;-63
2023/04/07 03:12:56;;;;;;;18.95;12.60;;;;;;;9.32;78.65;101404.78;5072175;28;20043;-63
2023/04/07 03:15:21;;;;;;;15.52;12.70;;;;;;;9.31;78.66;101399.44;5079336;28;20387;-63
2023/04/07 03:17:47;;;;;;;17.48;12.68;;;;;;;9.31;79.00;101410.53;5085665;28;20024;-63
2023/04/07 03:20:12;;;;;;;17.95;12.25;;;;;;;9.29;79.09;101402.47;5076496;28;20073;-63
2023/04/07 03:22:37;;;;;;;18.35;12.52;;;;;;;9.30;78.50;101404.13;5091169;28;20042;-63
2023/04/07 03:25:03;;;;;;;17.90;12.52;;;;;;;9.30;78.68;101404.13;5089156;28;20031;-63
2023/04/07 03:27:28;;;;;;;20.77;14.55;;;;;;;9.28;79.17;101402.69;5070742;28;20087;-64
2023/04/07 03:29:55;;;;;;;21.80;13.98;;;;;;;9.30;78.69;101414.38;5085879;28;20031;-63
2023/04/07 03:32:20;;;;;;;19.92;13.05;;;;;;;9.27;78.58;101406.53;5078433;28;20078;-63
2023/04/07 03:34:45;;;;;;;22.70;13.13;;;;;;;9.27;79.22;101406.53;5087536;28;20489;-63
2023/04/07 03:37:10;;;;;;;17.80;12.48;;;;;;;9.26;79.15;101407.59;5076319;28;20054;-63
2023/04/07 03:39:36;;;;;;;17.63;12.32;;;;;;;9.26;78.67;101405.69;5071669;28;20029;-62
2023/04/07 03:42:02;;;;;;;17.00;11.73;;;;;;;9.25;79.55;101400.38;5077177;28;20384;-63
2023/04/07 03:44:27;;;;;;;20.45;13.07;;;;;;;9.28;79.34;101408.25;5071917;28;20103;-63
2023/04/07 03:46:52;;;;;;;19.08;11.82;;;;;;;9.29;79.08;101409.94;5080761;28;20052;-63
2023/04/07 03:49:18;;;;;;;17.13;12.40;;;;;;;9.29;78.44;101413.53;5082905;28;20172;-63
2023/04/07 03:51:43;;;;;;;21.75;13.13;;;;;;;9.31;78.75;101410.53;5090645;28;20507;-63
2023/04/07 03:54:09;;;;;;;21.48;13.20;;;;;;;9.28;78.92;101411.00;5076920;28;20041;-63
2023/04/07 03:56:34;;;;;;;20.50;13.25;;;;;;;9.28;78.84;101406.31;5069668;28;20028;-63
2023/04/07 03:59:00;;;;;;;21.88;13.52;;;;;;;9.27;78.76;101412.06;5070368;28;20064;-63
2023/04/07 04:01:25;;;;;;;18.52;13.23;;;;;;;9.26;78.62;101407.59;5072370;28;20044;-63
2023/04/07 04:03:50;;;;;;;20.15;13.55;;;;;;;9.27;78.44;101412.06;5078214;28;20020;-63
2023/04/07 04:06:16;;;;;;;21.70;13.27;;;;;;;9.26;78.69;101419.53;5084434;28;20101;-63
2023/04/07 04:08:41;;;;;;;19.67;13.32;;;;;;;9.27;78.30;101417.59;5090911;28;20021;-63
2023/04/07 04:11:06;;;;;;;19.75;12.57;;;;;;;9.28;78.61;101419.31;5089551;28;20096;-62
2023/04/07 04:13:31;;;;;;;19.77;13.45;;;;;;;9.27;78.69;101414.84;5090898;28;20027;-62
2023/04/07 04:15:57;;;;;;;20.58;12.90;;;;;;;9.26;78.70;101405.69;5090568;28;20028;-63
2023/04/07 04:18:22;;;;;;;18.90;12.45;;;;;;;9.25;78.73;101408.69;5089487;28;20031;-63
2023/04/07 04:20:47;;;;;;;24.02;13.57;;;;;;;9.21;78.54;101408.31;5079420;28;20019;-63
2023/04/07 04:23:13;;;;;;;17.13;12.10;;;;;;;9.22;78.69;101409.16;5072368;28;20487;-63
2023/04/07 04:25:39;;;;;;;20.33;12.23;;;;;;;9.21;78.86;101411.06;5068734;28;20088;-62
2023/04/07 04:28:05;;;;;;;22.80;12.63;;;;;;;9.23;78.17;101413.59;5070283;28;20060;-62
2023/04/07 04:30:30;;;;;;;16.52;11.85;;;;;;;9.21;78.65;101410.25;5069288;28;20033;-62
2023/04/07 04:32:55;;;;;;;21.73;13.52;;;;;;;9.21;78.24;101410.25;5069868;28;20040;-62
2023/04/07 04:35:21;;;;;;;20.65;12.82;;;;;;;9.20;78.63;101414.09;5069107;28;20102;-63
2023/04/07 04:37:46;;;;;;;21.55;13.07;;;;;;;9.19;78.67;101417.91;5073198;28;20024;-63
2023/04/07 04:40:13;;;;;;;22.98;13.13;;;;;;;9.18;78.75;101419.00;5084704;28;20486;-62
2023/04/07 04:42:38;;;;;;;22.70;13.18;;;;;;;9.16;78.76;101421.16;5076546;28;20016;-62
2023/04/07 04:45:04;;;;;;;19.80;12.57;;;;;;;9.18;78.08;101419.84;5069407;28;20040;-62
2023/04/07 04:47:29;;;;;;;23.15;12.25;;;;;;;9.16;78.83;101429.47;5070170;28;20053;-64
2023/04/07 04:49:55;;;;;;;18.92;12.25;;;;;;;9.13;78.45;101433.53;5069986;28;20028;-63
2023/04/07 04:52:20;;;;;;;23.30;12.55;;;;;;;9.14;78.50;101431.63;5068285;28;20028;-63
2023/04/07 04:54:46;;;;;;;21.52;12.65;;;;;;;9.14;78.43;101435.22;5076685;28;20024;-63
2023/04/07 04:57:11;;;;;;;24.52;14.07;;;;;;;9.10;78.52;101437.59;5088943;28;20057;-62
2023/04/07 04:59:36;;;;;;;23.55;12.60;;;;;;;9.08;78.54;101445.31;5089003;28;20043;-62
2023/04/07 05:02:02;;;;;;;21.35;12.85;;;;;;;9.10;78.77;101439.53;5080983;28;20570;-62
2023/04/07 05:04:27;;;;;;;22.13;13.18;;;;;;;9.09;78.76;101446.16;5069559;28;20036;-63
2023/04/07 05:06:52;;;;;;;21.65;13.23;;;;;;;9.09;78.15;101449.75;5081932;28;20474;-63
2023/04/07 05:09:17;;;;;;;24.05;13.48;;;;;;;9.10;78.75;101451.44;5090632;28;20032;-63
2023/04/07 05:11:43;;;;;;;26.20;14.18;;;;;;;9.11;78.50;101449.53;5088397;28;20036;-63
2023/04/07 05:14:08;;;;;;;22.35;13.77;;;;;;;9.09;78.55;101457.22;5092199;28;20119;-63
2023/04/07 05:16:35;;;;;;;23.02;13.82;;;;;;;9.11;78.76;101460.59;5093728;28;20043;-63
2023/04/07 05:19:00;;;;;;;25.42;14.32;;;;;;;9.06;78.55;101460.44;5085876;28;20071;-63
2023/04/07 05:21:26;;;;;;;23.67;14.70;;;;;;;9.08;78.99;101466.63;5093266;28;20098;-62
2023/04/07 05:23:52;;;;;;;23.27;13.27;;;;;;;9.07;78.22;101460.22;5093592;28;20027;-63
2023/04/07 05:26:17;;;;;;;19.98;13.35;;;;;;;9.12;78.74;101469.75;5086365;28;20092;-63
2023/04/07 05:28:42;;;;;;;27.05;14.02;;;;;;;9.09;78.26;101471.91;5077342;28;20028;-62
2023/04/07 05:31:08;;;;;;;21.80;13.68;;;;;;;9.08;79.04;101467.47;5071746;28;20028;-62
2023/04/07 05:33:33;;;;;;;21.48;13.50;;;;;;;9.07;78.52;101462.97;5073753;28;20040;-62
2023/04/07 05:35:58;;;;;;;23.00;12.77;;;;;;;9.05;78.50;101473.44;5082021;28;20025;-62
2023/04/07 05:38:24;;;;;;;24.55;13.77;;;;;;;9.07;78.32;101478.75;5082215;28;20031;-62
2023/04/07 05:40:50;;;;;;;20.77;12.93;;;;;;;9.08;78.56;101477.69;5080809;28;20024;-62
2023/04/07 05:43:15;;;;;;;25.35;14.57;;;;;;;9.07;78.60;101482.38;5086828;28;20082;-62
2023/04/07 05:45:40;;;;;;;23.52;14.55;;;;;;;9.06;78.69;101483.44;5073717;28;20427;-61
2023/04/07 05:48:06;;;;;;;24.65;14.52;;;;;;;9.09;78.80;101479.38;5074310;28;20424;-63
2023/04/07 05:50:31;;;;;;;25.75;14.77;;;;;;;9.09;78.96;101476.63;5075776;28;20150;-62
2023/04/07 05:52:56;;;;;;;24.38;14.70;;;;;;;9.08;79.35;101477.69;5080681;28;20034;-62
2023/04/07 05:55:22;;;;;;;25.08;14.90;;;;;;;9.07;79.32;101475.97;5079202;28;20029;-62
2023/04/07 05:57:48;;;;;;;27.75;15.32;;;;;;;9.06;79.00;101475.13;5082151;28;20031;-63
2023/04/07 06:00:14;;;;;;;28.30;15.35;;;;;;;9.06;78.99;101475.13;5069800;28;20039;-63
2023/04/07 06:02:39;;;;;;;31.55;15.25;;;;;;;9.07;79.48;101474.06;5084568;28;20032;-62
2023/04/07 06:05:05;;;;;;;28.38;15.88;;;;;;;9.04;79.55;101477.31;5073445;28;20020;-63
2023/04/07 06:07:31;;;;;;;26.65;15.20;;;;;;;9.09;79.33;101485.75;5075168;28;20032;-63
2023/04/07 06:09:57;;;;;;;27.15;16.58;;;;;;;9.05;79.33;101489.22;5062788;28;20036;-62
2023/04/07 06:12:22;;;;;;;26.17;15.23;;;;;;;9.08;79.17;101486.00;5065000;28;20044;-62
2023/04/07 06:14:54;;;;;;;28.67;16.92;;;;;;;9.07;79.64;101492.59;5073587;28;20107;-60
2023/04/07 06:17:20;;;;;;;29.08;16.08;;;;;;;9.11;79.42;101491.06;5086623;28;20586;-64
2023/04/07 06:19:45;;;;;;;25.88;16.77;;;;;;;9.09;79.77;101496.84;5079012;28;20035;-64
2023/04/07 06:22:11;;;;;;;27.95;17.52;;;;;;;9.09;79.44;101490.47;5068489;28;20543;-64
2023/04/07 06:24:36;;;;;;;30.38;17.60;;;;;;;9.07;79.56;101493.44;5067080;28;20024;-59
2023/04/07 06:27:02;;;;;;;24.83;17.88;;;;;;;9.09;80.02;101501.53;5067363;28;20039;-62
2023/04/07 06:29:28;;;;;;;31.02;19.02;;;;;;;9.08;79.77;101499.84;5069345;28;20774;-63
2023/04/07 06:31:54;;;;;;;28.30;17.75;;;;;;;9.10;79.84;101508.75;5070303;28;20059;-64
2023/04/07 06:34:20;;;;;;;30.15;18.35;;;;;;;9.09;79.75;101507.06;5080198;28;20387;-63
2023/04/07 06:36:45;;;;;;;32.13;18.52;;;;;;;9.10;79.58;101509.59;5067592;28;20032;-64
2023/04/07 06:39:11;;;;;;;29.60;18.27;;;;;;;9.10;80.13;101509.59;5080149;28;20130;-64
2023/04/07 06:41:37;;;;;;;27.48;17.25;;;;;;;9.13;79.76;101507.47;5088282;28;20028;-63
2023/04/07 06:44:03;;;;;;;29.58;17.45;;;;;;;9.12;80.12;101520.47;5067645;28;20025;-62
2023/04/07 06:46:29;;;;;;;28.17;18.20;;;;;;;9.14;80.34;101515.53;5072830;28;20027;-62
2023/04/07 06:48:54;;;;;;;29.42;17.92;;;;;;;9.14;80.22;101517.47;5085127;28;20051;-62
2023/04/07 06:51:20;;;;;;;28.67;18.45;;;;;;;9.15;80.27;101521.94;5085564;28;20626;-61
2023/04/07 06:53:47;;;;;;;29.85;17.23;;;;;;;9.18;80.22;101518.72;5080000;28;20029;-61
2023/04/07 06:56:12;;;;;;;26.02;18.13;;;;;;;9.19;79.98;101524.00;5087079;28;20471;-60
2023/04/07 06:58:38;;;;;;;24.90;17.15;;;;;;;9.20;80.20;101530.41;5087622;28;20047;-63
2023/04/07 07:01:04;;;;;;;25.55;16.83;;;;;;;9.21;80.57;101530.19;5073619;28;20036;-65
2023/04/07 07:03:30;;;;;;;21.17;15.93;;;;;;;9.22;80.60;101531.03;5091118;28;20461;-65
2023/04/07 07:05:57;;;;;;;20.63;14.95;;;;;;;9.28;80.54;101530.13;5076822;28;20574;-65
2023/04/07 07:08:23;;;;;;;24.40;15.05;;;;;;;9.31;80.08;101532.41;5089069;28;20078;-64
2023/04/07 07:10:48;;;;;;;23.13;14.48;;;;;;;9.33;79.96;101533.06;5081180;28;20047;-63
2023/04/07 07:13:14;;;;;;;22.33;12.55;;;;;;;9.34;79.33;101535.59;5076316;28;20024;-62
2023/04/07 07:15:39;;;;;;;20.55;13.25;;;;;;;9.36;80.12;101537.28;5077210;28;20020;-63
2023/04/07 07:18:04;;;;;;;19.38;12.27;;;;;;;9.39;80.22;101534.88;5075653;28;20060;-61
2023/04/07 07:20:30;;;;;;;23.30;12.07;;;;;;;9.41;79.75;101541.06;5069885;28;20089;-64
2023/04/07 07:22:55;;;;;;;21.70;12.88;;;;;;;9.45;80.46;101542.31;5085568;28;20033;-60
2023/04/07 07:25:21;;;;;;;16.42;12.07;;;;;;;9.56;80.04;101535.16;5078869;28;20044;-63
2023/04/07 07:27:46;;;;;;;20.52;13.10;;;;;;;9.56;80.38;101538.78;5077782;28;20073;-64
2023/04/07 07:30:11;;;;;;;18.58;12.15;;;;;;;9.62;80.20;101539.78;5070561;28;20086;-63
2023/04/07 07:32:37;;;;;;;21.60;12.57;;;;;;;9.64;79.97;101547.88;5074943;28;20710;-63
2023/04/07 07:35:02;;;;;;;18.80;10.93;;;;;;;9.68;79.91;101547.19;5068770;28;20032;-64
2023/04/07 07:37:27;;;;;;;17.13;10.43;;;;;;;9.72;79.86;101553.09;5085347;28;20031;-63
2023/04/07 07:39:53;;;;;;;17.58;10.57;;;;;;;9.75;79.46;101549.88;5090632;28;20028;-63
2023/04/07 07:42:18;;;;;;;14.60;8.50;;;;;;;9.79;78.16;101554.72;5088265;28;20474;-62
2023/04/07 07:44:43;;;;;;;13.27;8.50;;;;;;;9.80;78.13;101561.13;5083840;28;20031;-63
2023/04/07 07:47:09;;;;;;;16.75;8.15;;;;;;;9.82;77.45;101564.50;5086930;28;20032;-64
2023/04/07 07:49:34;;;;;;;13.93;7.80;;;;;;;9.81;77.45;101562.81;5089872;28;20034;-64
2023/04/07 07:51:59;;;;;;;12.50;8.23;;;;;;;9.82;77.18;101570.91;5070579;28;20089;-64
2023/04/07 07:54:25;;;;;;;10.02;8.05;;;;;;;9.82;77.16;101570.03;5089256;28;20529;-64
2023/04/07 07:56:51;;;;;;;18.23;8.07;;;;;;;9.80;77.53;101567.50;5077148;28;20025;-64
2023/04/07 07:59:16;;;;;;;14.75;7.50;;;;;;;9.79;77.04;101565.81;5074761;28;20028;-64
2023/04/07 08:01:42;;;;;;;11.38;7.15;;;;;;;9.79;76.76;101573.28;5081225;28;20028;-64
2023/04/07 08:04:07;;;;;;;10.60;7.40;;;;;;;9.77;77.02;101572.66;5089496;28;20146;-64
2023/04/07 08:06:33;;;;;;;11.30;6.05;;;;;;;9.77;76.35;101572.66;5088955;28;20076;-64
2023/04/07 08:08:58;;;;;;;10.75;6.28;;;;;;;9.75;75.82;101575.69;5074828;28;20050;-62
2023/04/07 08:11:23;;;;;;;11.13;5.18;;;;;;;9.79;75.73;101576.91;5089251;28;20043;-63
2023/04/07 08:13:49;;;;;;;7.93;5.05;;;;;;;9.82;75.17;101583.91;5069352;28;20080;-63
2023/04/07 08:16:14;;;;;;;9.98;5.50;;;;;;;9.82;75.82;101584.78;5066886;28;20060;-63
2023/04/07 08:18:39;;;;;;;7.05;5.32;;;;;;;9.84;75.94;101590.91;5069712;28;20032;-64
2023/04/07 08:21:05;;;;;;;10.15;5.47;;;;;;;9.89;76.04;101589.38;5069280;28;20085;-64
2023/04/07 08:23:30;;;;;;;16.63;5.72;;;;;;;9.89;75.79;101590.22;5066733;28;20460;-64
2023/04/07 08:25:56;;;;;;;12.52;5.10;;;;;;;9.89;75.74;101587.44;5070736;28;20032;-65
2023/04/07 08:28:21;;;;;;;9.70;4.78;;;;;;;9.91;75.83;101587.25;5069391;28;20028;-63
2023/04/07 08:30:47;;;;;;;7.38;4.28;;;;;;;9.91;75.41;101595.56;5068013;28;20036;-64
2023/04/07 08:33:12;;;;;;;8.75;4.50;;;;;;;9.92;75.62;101598.09;5069613;28;20036;-65
2023/04/07 08:35:37;;;;;;;6.88;4.53;;;;;;;9.92;75.00;101600.03;5078843;28;20069;-65
2023/04/07 08:38:03;;;;;;;8.98;4.70;;;;;;;9.91;75.41;101601.09;5088393;28;20080;-62
2023/04/07 08:40:29;;;;;;;8.30;4.85;;;;;;;9.89;75.50;101606.88;5089673;28;20032;-63
2023/04/07 08:42:56;;;;;;;7.65;4.60;;;;;;;9.88;75.64;101609.88;5071957;28;20066;-63
2023/04/07 08:45:23;;;;;;;11.25;4.72;;;;;;;9.87;75.60;101610.97;5071455;28;20044;-63
2023/04/07 08:47:53;;;;;;;6.88;3.88;;;;;;;9.83;74.92;101611.41;5073264;28;20105;-63
2023/04/07 08:50:20;;;;;;;7.22;3.97;;;;;;;9.84;74.94;101615.03;5091059;28;20228;-62
2023/04/07 08:52:52;;;;;;;10.52;3.85;;;;;;;9.83;74.38;101607.81;5093206;28;20028;-63
2023/04/07 08:55:17;;;;;;;7.05;3.92;;;;;;;9.84;74.25;101623.34;5091790;28;20364;-64
2023/04/07 08:57:42;;;;;;;10.45;4.03;;;;;;;9.86;74.37;101626.72;5078400;28;20028;-63
2023/04/07 09:00:09;;;;;;;10.77;3.92;;;;;;;9.86;74.08;101626.72;5072866;28;20047;-63
2023/04/07 09:02:43;;;;;;;7.72;3.30;;;;;;;9.87;74.59;101627.59;5072932;28;20391;-64
2023/04/07 09:05:09;;;;;;;10.02;3.03;;;;;;;9.83;74.50;101628.06;5080277;28;20115;-64
2023/04/07 09:07:36;;;;;;;7.07;3.00;;;;;;;9.89;74.26;101631.81;5092241;28;20032;-63
2023/04/07 09:10:02;;;;;;;6.63;2.80;;;;;;;9.92;73.82;101634.13;5076387;28;20036;-64
2023/04/07 09:12:28;;;;;;;7.40;2.53;;;;;;;9.97;73.92;101625.13;5082726;28;20052;-63
2023/04/07 09:14:54;;;;;;;6.25;2.42;;;;;;;10.01;73.69;101629.97;5077719;28;20059;-63
2023/04/07 09:17:20;;;;;;;4.47;2.55;;;;;;;10.04;73.80;101629.53;5079490;28;20027;-64
2023/04/07 09:19:46;;;;;;;9.55;3.10;;;;;;;10.08;74.14;101629.91;5084694;28;20398;-63
2023/04/07 09:22:13;;;;;;;6.05;2.88;;;;;;;10.10;73.80;101630.53;5105661;28;20397;-65
2023/04/07 09:24:39;;;;;;;7.47;2.58;;;;;;;10.12;73.64;101635.84;5100199;28;20028;-64
2023/04/07 09:27:08;;;;;;;8.00;2.72;;;;;;;10.14;73.52;101636.44;5089094;28;20028;-64
2023/04/07 09:29:36;;;;;;;6.85;2.97;;;;;;;10.15;73.18;101635.38;5076727;28;20028;-65
2023/04/07 09:32:02;;;;;;;4.30;2.60;;;;;;;10.15;73.93;101643.72;5087784;28;20016;-64
2023/04/07 09:34:34;;;;;;;10.95;3.10;;;;;;;10.15;73.26;101644.56;5085907;28;20052;-61
2023/04/07 09:37:00;;;;;;;7.47;2.67;;;;;;;10.18;73.11;101640.44;5080639;28;20430;-63
2023/04/07 09:39:25;;;;;;;7.75;2.90;;;;;;;10.17;73.09;101639.59;5082850;28;20032;-63
2023/04/07 09:41:51;;;;;;;10.88;3.05;;;;;;;10.19;73.13;101633.84;5081219;28;20055;-63
2023/04/07 09:44:24;;;;;;;5.13;2.67;;;;;;;10.22;73.29;101638.94;5073921;28;20757;-63
2023/04/07 09:46:53;;;;;;;8.77;2.90;;;;;;;10.23;73.39;101641.47;5078463;28;20033;-63
2023/04/07 09:49:20;;;;;;;6.35;2.90;;;;;;;10.21;72.86;101637.22;5084570;28;20103;-64
2023/04/07 09:52:06;;;;;;;6.75;3.20;;;;;;;10.23;73.33;101640.63;5091199;28;20065;-64
2023/04/07 09:54:36;;;;;;;10.57;3.22;;;;;;;10.24;73.45;101631.22;5077572;28;20040;-63
2023/04/07 09:57:03;;;;;;;7.03;3.03;;;;;;;10.26;73.52;101638.28;5077045;28;20505;-65
2023/04/07 09:59:30;;;;;;;8.48;3.15;;;;;;;10.18;72.52;101644.09;5078492;28;20028;-60
2023/04/07 10:01:55;;;;;;;7.30;2.80;;;;;;;10.19;73.21;101645.78;5084755;28;20020;-60
2023/04/07 10:04:22;;;;;;;6.18;2.83;;;;;;;10.19;72.74;101640.25;5077745;28;20386;-59
2023/04/07 10:06:47;;;;;;;13.25;3.72;;;;;;;10.11;72.37;101642.47;5085132;28;20029;-63
2023/04/07 10:09:13;;;;;;;14.32;3.80;;;;;;;10.13;72.72;101648.63;5076717;28;20085;-65
2023/04/07 10:11:42;;;;;;;14.75;3.90;;;;;;;10.08;73.07;101649.31;5085056;28;20517;-61
2023/04/07 10:14:09;;;;;;;15.07;4.13;;;;;;;10.03;72.98;101649.19;5083531;28;20163;-68
2023/04/07 10:16:37;;;;;;;14.85;3.80;;;;;;;10.03;73.55;101646.41;5077619;28;20336;-67
2023/04/07 10:19:03;;;;;;;16.13;4.45;;;;;;;10.07;73.29;101651.25;5075790;28;20032;-65
2023/04/07 10:21:30;;;;;;;13.80;3.72;;;;;;;10.09;73.19;101662.09;5073542;28;20510;-69
2023/04/07 10:24:08;;;;;;;11.82;3.50;;;;;;;10.12;72.87;101658.03;5069349;28;20452;-65
2023/04/07 10:26:36;;;;;;;10.10;3.25;;;;;;;10.06;72.42;101668.09;5073506;28;20107;-63
2023/04/07 10:29:09;;;;;;;11.93;3.60;;;;;;;10.10;72.16;101666.59;5083198;28;20027;-65
2023/04/07 10:31:36;;;;;;;16.00;3.72;;;;;;;10.13;72.54;101671.66;5071682;28;20056;-66
2023/04/07 10:34:02;;;;;;;9.52;3.30;;;;;;;10.16;72.20;101671.22;5089202;28;20464;-65
2023/04/07 10:36:28;;;;;;;8.00;2.80;;;;;;;10.19;72.28;101667.97;5085166;28;20160;-66
2023/04/07 10:39:08;;;;;;;8.35;3.22;;;;;;;10.26;72.34;101679.06;5090624;28;20024;-65
2023/04/07 10:41:35;;;;;;;9.38;3.50;;;;;;;10.26;71.94;101681.81;5085392;28;20036;-63
2023/04/07 10:44:02;;;;;;;10.77;3.42;;;;;;;10.30;71.57;101686.66;5085700;28;20768;-64
2023/04/07 10:46:47;;;;;;;6.88;3.40;;;;;;;10.40;72.00;101679.72;5084641;28;20032;-67
2023/04/07 10:49:13;;;;;;;9.85;3.30;;;;;;;10.38;70.98;101681.91;5081646;28;20077;-67
2023/04/07 10:51:39;;;;;;;10.20;3.20;;;;;;;10.31;70.40;101681.97;5075627;28;20032;-66
2023/04/07 10:54:15;;;;;;;8.13;2.72;;;;;;;10.30;70.53;101686.66;5076411;28;20028;-64
2023/04/07 10:57:04;;;;;;;6.53;2.65;;;;;;;10.35;71.41;101682.34;5080989;28;20032;-65
2023/04/07 10:59:30;;;;;;;13.43;3.22;;;;;;;10.34;71.79;101684.28;5071621;28;20111;-63
2023/04/07 11:02:13;;;;;;;8.48;2.78;;;;;;;10.35;71.44;101685.13;5079779;28;20152;-63
2023/04/07 11:04:41;;;;;;;12.07;3.33;;;;;;;10.34;71.27;101677.91;5071054;28;20040;-64
2023/04/07 11:07:07;;;;;;;8.05;2.63;;;;;;;10.40;70.90;101686.13;5084886;28;20028;-65
2023/04/07 11:09:33;;;;;;;10.93;3.00;;;;;;;10.42;70.66;101683.97;5072197;28;20028;-64
2023/04/07 11:11:58;;;;;;;7.35;2.47;;;;;;;10.44;70.52;101683.72;5068813;28;20513;-62
2023/04/07 11:14:31;;;;;;;8.82;2.65;;;;;;;10.48;70.64;101688.56;5075735;28;20056;-63
2023/04/07 11:16:58;;;;;;;8.73;2.70;;;;;;;10.50;70.00;101694.75;5074132;28;20081;-63